Weather at Bui-Dama Airport [CLOSED]

Public forecast

Using degrees Celsius for public forecast. Weather courtesy of forecast.io.

Closest aviation weather report (METAR) to Bui-Dama Airport

Report is more than 6 hours old.

Closest report is Savusavu Airport, 41.4 nm (76.6 km) E. Retrieved 2022/09/16 21:00 UTC (13 days ago):

NFNS 162100Z 10004KT 9999 FEW028 SCT050 27/24 Q1016

Closest aviation forecast (TAF) to Bui-Dama Airport

Forecast is more than 12 hours old.

Closest forecast is Nausori International Airport, 71.2 nm (131.8 km) S. Retrieved 2022/09/17 18:00 UTC (12 days ago):

TAF NFNA 171701Z 1718/1818 13005KT 9999 FEW012 BKN045 PROB30 TEMPO 1800/1809 5000 SHRA BKN015